G Force — MNHN9 — position and weather

sailwx.info

Track history (hours):
 
Tides and Currents Weather Stations Pressure Air Temp Water Temp Dewpoint Dewpoint Depression Visibility Wind Speed Wind Dir Waves Ship Positions

G Force

Last reported at 2015-Apr-17 09:07 UTC. Time now 2015-Apr-18 03:21 UTC.
Position N 38°30' E 015°11'.

Length 37 m; draft 2 m.

Type: Pleasure craft. MMSI: 235011330.

Date/timePositionNaut miles runAvg speedWind from/ knotsBaromVisibWave heightAir tempDewpointWater temp
2015-Apr-17 09:07N 38°30' E 015°11'814.3
2015-Apr-17 08:33N 38°33' E 015°02'1313.0
2015-Apr-17 07:33N 38°40' E 014°48'1513.1
2015-Apr-17 06:24N 38°48' E 014°31'1413.3
2015-Apr-17 05:23N 38°55' E 014°16'2613.1
2015-Apr-17 03:24N 39°09' E 013°48'1113.3
2015-Apr-17 02:33N 39°15' E 013°36'1313.1
2015-Apr-17 01:32N 39°22' E 013°21'1413.2
2015-Apr-17 00:30N 39°28' E 013°05'1212.8
2015-Apr-16 23:33N 39°35' E 012°52'5713.0
2015-Apr-16 19:13N 40°05' E 011°50'7613.2
2015-Apr-16 13:27N 40°45' E 010°24'1513.4
2015-Apr-16 12:19N 40°53' E 010°08'2413.4
2015-Apr-16 10:33N 41°06' E 009°41'13213.0
2015-Apr-16 00:22N 41°46' E 006°53'1413.2
2015-Apr-15 23:17N 41°49' E 006°35'1013.0
2015-Apr-15 22:33N 41°52' E 006°22'1513.1
2015-Apr-15 21:26N 41°57' E 006°03'1313.5
2015-Apr-15 20:28N 41°60' E 005°47'1412.9
2015-Apr-15 19:24N 42°03' E 005°29'1211.3
2015-Apr-15 18:20N 42°07' E 005°13'1213.0
2015-Apr-15 17:27N 42°10' E 004°58'1513.2
2015-Apr-15 16:19N 42°14' E 004°39'1113.6
2015-Apr-15 15:32N 42°17' E 004°25'1412.9
2015-Apr-15 14:29N 42°20' E 004°07'1212.8
2015-Apr-15 13:33N 42°23' E 003°51'1413.2
2015-Apr-15 12:27N 42°26' E 003°32'1713.4
2015-Apr-15 11:12N 42°31' E 003°11'3 0.2
2015-Apr-14 17:20N 42°31' E 003°06'6 7.1
2015-Apr-14 16:26N 42°27' E 003°13'1413.2
2015-Apr-14 15:21N 42°13' E 003°19'1113.1
2015-Apr-14 14:31N 42°03' E 003°17'1212.2
2015-Apr-14 13:31N 41°51' E 003°12'1614.1
2015-Apr-14 12:25N 41°42' E 002°55'910.4
2015-Apr-14 11:31N 41°37' E 002°44'2912.3
2015-Apr-14 09:09N 41°22' E 002°11'  
2015-Apr-08 02:14N 41°17' E 002°13'2213.1
2015-Apr-08 00:33N 40°55' E 002°05'1413.6
2015-Apr-07 23:33N 40°42' E 001°59'1413.9
2015-Apr-07 22:34N 40°29' E 001°53'1413.6
2015-Apr-07 21:32N 40°16' E 001°47'1312.9
2015-Apr-07 20:33N 40°04' E 001°42'1312.8
2015-Apr-07 19:33N 39°52' E 001°37'2613.1
2015-Apr-07 17:33N 39°27' E 001°27'38 4.7
2015-Apr-07 09:31N 38°50' E 001°18'  
Track history (hours):
 
Tides and Currents Weather Stations Pressure Air Temp Water Temp Dewpoint Dewpoint Depression Visibility Wind Speed Wind Dir Waves Ship Positions

G Force

Last reported at 2015-Apr-17 09:07 UTC. Time now 2015-Apr-18 03:21 UTC.
Position N 38°30' E 015°11'.

Length 37 m; draft 2 m.

Type: Pleasure craft. MMSI: 235011330.

Date/timePositionNaut miles runAvg speedWind from/ knotsBaromVisibWave heightAir tempDewpointWater temp
2015-Apr-17 09:07N 38°30' E 015°11'814.3
2015-Apr-17 08:33N 38°33' E 015°02'1313.0
2015-Apr-17 07:33N 38°40' E 014°48'1513.1
2015-Apr-17 06:24N 38°48' E 014°31'1413.3
2015-Apr-17 05:23N 38°55' E 014°16'2613.1
2015-Apr-17 03:24N 39°09' E 013°48'1113.3
2015-Apr-17 02:33N 39°15' E 013°36'1313.1
2015-Apr-17 01:32N 39°22' E 013°21'1413.2
2015-Apr-17 00:30N 39°28' E 013°05'1212.8
2015-Apr-16 23:33N 39°35' E 012°52'5713.0
2015-Apr-16 19:13N 40°05' E 011°50'7613.2
2015-Apr-16 13:27N 40°45' E 010°24'1513.4
2015-Apr-16 12:19N 40°53' E 010°08'2413.4
2015-Apr-16 10:33N 41°06' E 009°41'13213.0
2015-Apr-16 00:22N 41°46' E 006°53'1413.2
2015-Apr-15 23:17N 41°49' E 006°35'1013.0
2015-Apr-15 22:33N 41°52' E 006°22'1513.1
2015-Apr-15 21:26N 41°57' E 006°03'1313.5
2015-Apr-15 20:28N 41°60' E 005°47'1412.9
2015-Apr-15 19:24N 42°03' E 005°29'1211.3
2015-Apr-15 18:20N 42°07' E 005°13'1213.0
2015-Apr-15 17:27N 42°10' E 004°58'1513.2
2015-Apr-15 16:19N 42°14' E 004°39'1113.6
2015-Apr-15 15:32N 42°17' E 004°25'1412.9
2015-Apr-15 14:29N 42°20' E 004°07'1212.8
2015-Apr-15 13:33N 42°23' E 003°51'1413.2
2015-Apr-15 12:27N 42°26' E 003°32'1713.4
2015-Apr-15 11:12N 42°31' E 003°11'3 0.2
2015-Apr-14 17:20N 42°31' E 003°06'6 7.1
2015-Apr-14 16:26N 42°27' E 003°13'1413.2
2015-Apr-14 15:21N 42°13' E 003°19'1113.1
2015-Apr-14 14:31N 42°03' E 003°17'1212.2
2015-Apr-14 13:31N 41°51' E 003°12'1614.1
2015-Apr-14 12:25N 41°42' E 002°55'910.4
2015-Apr-14 11:31N 41°37' E 002°44'2912.3
2015-Apr-14 09:09N 41°22' E 002°11'  
2015-Apr-08 02:14N 41°17' E 002°13'2213.1
2015-Apr-08 00:33N 40°55' E 002°05'1413.6
2015-Apr-07 23:33N 40°42' E 001°59'1413.9
2015-Apr-07 22:34N 40°29' E 001°53'1413.6
2015-Apr-07 21:32N 40°16' E 001°47'1312.9
2015-Apr-07 20:33N 40°04' E 001°42'1312.8
2015-Apr-07 19:33N 39°52' E 001°37'2613.1
2015-Apr-07 17:33N 39°27' E 001°27'38 4.7
2015-Apr-07 09:31N 38°50' E 001°18'  

Dump ship's entire track history